Hunt Field
KLND : rendu visible

Aérodrome :











RETROUVEZ-NOUS SUR...

 
LOGIN :

S'inscrire | Disclaimer

   EN    FR    IT 

 









Légende :    VFR   VFR Marginal   IFR   IFR Intensif   IFR Très Intensif
Visi : 
Plafond : 
>= 8 km
>= 3000ft
5 à 8 km
1000 à 3000 ft
1500m à 5 km
500 à 1000 ft
800 à 1500m
200 à 500 ft
< 800m
< 200 ft
Symboles :   Orages  Brouillard  Fortes neiges  Fortes précipitations  Vent > 20 kt






- Altitude de l'aérodrome : 5586 ft


KLND - Hunt Field

DERNIER METAR :
  • 042153Z AUTO 27015G24KT 10SM CLR 27/02 A2990 RMK AO2 PK WND 27036/2128 SLP052 T02720022

METARs EXPIRÉS :
  • 042053Z AUTO 33012KT 10SM SCT110 28/02 A2988 RMK AO2 SLP043 T02780022 56016
  • 041953Z AUTO VRB04G20KT 10SM BKN110 28/01 A2989 RMK AO2 SLP045 T02780011

TAF KLND
Valide du 04 à 22h jusqu'au 05 à 18h UTC


042136Z 0422/0518 27020G30KT P6SM FEW080 SCT250
FM050300 VRB04KT P6SM FEW250
FIR KZLC / Amérique du Nord



MET'MAP, la Météo Aéronautique d'un coup d'oeil ! - Copyright ORBIFLY Décembre 2007 - Disclaimer

ORBIFLY MET'MAP TEAM :

Programmation & Développement : Alexandra Zaïnal
Sur une idée originale de : Baudouin d'Aumeries
Assistance à la programmation : Marc-Olivier Méhu
Soutien technique & logistique : Manuel Goepfert

Contact : metmap@orbifly.com




SOURCES & CREDITS :

   NOAA       Earth
Advisory